createdAt,value
2022-09-06T07:28:05.879Z,96757.56
2022-09-06T07:29:11.950Z,96750.09
2022-09-06T07:30:14.126Z,96764.78
2022-09-06T07:32:36.966Z,96766.72
2022-09-06T07:33:38.946Z,96754.53
2022-09-06T07:34:44.571Z,96757.88
2022-09-06T07:35:59.740Z,96764.19
2022-09-06T07:37:01.230Z,96758.44
2022-09-06T07:38:03.153Z,96760.38
2022-09-06T07:39:04.582Z,96756.38
2022-09-06T07:54:07.080Z,96730.56
2022-09-06T07:55:18.515Z,96743.91
2022-09-06T07:56:21.857Z,96736.97
2022-09-06T07:57:23.821Z,96727.00
2022-09-06T07:58:25.288Z,96739.16
2022-09-06T07:59:27.445Z,96741.69
2022-09-06T08:00:28.857Z,96736.34
2022-09-06T08:01:34.467Z,96740.72
2022-09-06T08:02:39.447Z,96732.16
2022-09-06T08:03:40.864Z,96730.34
2022-09-06T08:04:42.560Z,96741.72
2022-09-06T08:13:58.084Z,96745.94
2022-09-06T08:14:59.517Z,96744.13
2022-09-06T08:16:06.633Z,96742.16
2022-09-06T08:17:08.059Z,96742.75
2022-09-06T08:18:13.923Z,96746.69
2022-09-06T08:19:15.519Z,96743.16
2022-09-06T08:20:17.752Z,96735.38
2022-09-06T08:21:20.335Z,96731.63
2022-09-06T08:22:21.774Z,96734.13
2022-09-06T08:23:23.201Z,96745.22
2022-09-06T08:24:24.710Z,96743.91
2022-09-06T08:25:26.111Z,96742.97
2022-09-06T08:26:28.996Z,96744.88
2022-09-06T08:27:30.396Z,96744.31
2022-09-06T08:28:35.617Z,96746.50
2022-09-06T08:29:37.043Z,96744.78
2022-09-06T08:30:38.443Z,96742.63
2022-09-06T08:31:42.716Z,96742.56
2022-09-06T08:32:44.218Z,96743.91
2022-09-06T08:33:47.826Z,96744.41
2022-09-06T08:34:49.639Z,96745.81
2022-09-06T08:35:58.635Z,96747.72
2022-09-06T08:37:00.032Z,96738.19
2022-09-06T08:38:01.451Z,96730.81
2022-09-06T08:39:05.952Z,96740.47
2022-09-06T08:40:08.032Z,96742.88
2022-09-06T08:41:33.474Z,96731.00
2022-09-06T08:42:39.808Z,96749.56
2022-09-06T08:49:05.194Z,96734.25
2022-09-06T08:50:07.559Z,96731.94
2022-09-06T08:51:38.541Z,96738.38
2022-09-06T08:53:15.553Z,96735.34
2022-09-06T08:54:40.348Z,96727.50
2022-09-06T08:55:51.191Z,96739.09
2022-09-06T08:57:04.490Z,96730.72
2022-09-06T08:58:17.845Z,96735.84
2022-09-06T08:59:20.313Z,96728.66
2022-09-06T09:00:27.074Z,96716.38
2022-09-06T09:01:37.922Z,96730.13
2022-09-06T09:02:51.713Z,96733.19
2022-09-06T09:03:58.360Z,96734.00
2022-09-06T09:05:04.257Z,96728.41
2022-09-06T09:06:12.354Z,96726.97
2022-09-06T09:07:36.787Z,96732.25
2022-09-06T09:08:44.319Z,96732.94
2022-09-06T09:09:46.095Z,96739.13
2022-09-06T09:10:50.454Z,96738.19
2022-09-06T09:11:52.108Z,96738.44
2022-09-06T09:12:53.537Z,96739.47
2022-09-06T09:13:59.162Z,96742.16
2022-09-06T09:15:06.664Z,96735.47
2022-09-06T09:16:08.245Z,96734.44
2022-09-06T09:17:20.360Z,96740.25
2022-09-06T09:18:26.934Z,96726.34
2022-09-06T09:19:31.637Z,96741.34
2022-09-06T09:20:33.148Z,96736.78
2022-09-06T09:21:37.500Z,96730.44
2022-09-06T09:22:40.497Z,96738.28
2022-09-06T09:23:41.916Z,96737.81
2022-09-06T09:24:43.495Z,96732.44
2022-09-06T09:38:52.762Z,96746.84
2022-09-06T09:39:56.887Z,96744.94
2022-09-06T09:41:01.910Z,96741.56
2022-09-06T09:42:03.696Z,96739.59
2022-09-06T09:43:17.945Z,96743.66
2022-09-06T09:44:19.999Z,96729.59
2022-09-06T09:45:29.243Z,96742.69
2022-09-06T09:46:33.695Z,96746.66
2022-09-06T09:47:35.177Z,96739.19
2022-09-06T09:48:37.395Z,96737.91
2022-09-06T09:49:38.764Z,96737.28
2022-09-06T09:50:40.169Z,96742.06
2022-09-06T09:51:48.590Z,96738.84
2022-09-06T09:52:49.943Z,96735.00
2022-09-06T09:53:54.083Z,96742.69
2022-09-06T09:55:02.257Z,96737.25
2022-09-06T10:01:29.392Z,96740.31
2022-09-06T10:02:36.000Z,96739.19
2022-09-06T10:05:04.253Z,96736.19
2022-09-06T10:07:33.545Z,96732.56
2022-09-06T10:08:43.681Z,96737.84
2022-09-06T10:09:57.421Z,96732.50
2022-09-06T10:10:58.841Z,96730.47
2022-09-06T10:12:00.392Z,96730.13
2022-09-06T10:13:12.482Z,96725.22
2022-09-06T10:14:32.546Z,96730.16
2022-09-06T10:15:39.537Z,96726.03
2022-09-06T10:16:44.792Z,96726.16
2022-09-06T10:17:52.546Z,96729.44
2022-09-06T10:18:54.045Z,96725.72
2022-09-06T10:19:56.140Z,96716.19
2022-09-06T10:21:15.987Z,96720.88
2022-09-06T10:22:26.724Z,96724.94
2022-09-06T10:25:14.203Z,96721.59
2022-09-06T10:39:58.954Z,96717.59
2022-09-06T10:41:11.464Z,96709.28
2022-09-06T10:42:25.881Z,96707.34
2022-09-06T10:43:38.567Z,96701.00
2022-09-06T10:44:42.550Z,96704.41
2022-09-06T10:46:02.509Z,96696.91
2022-09-06T10:47:16.702Z,96691.09
2022-09-06T10:54:04.233Z,96698.66
2022-09-06T10:55:10.778Z,96690.69
2022-09-06T10:56:21.037Z,96693.47
2022-09-06T10:59:37.836Z,96684.78
2022-09-06T11:00:47.275Z,96684.91
2022-09-06T11:02:12.921Z,96690.66
2022-09-06T11:03:58.491Z,96690.56
2022-09-06T11:18:13.744Z,96686.88
2022-09-06T11:19:33.022Z,96685.47
2022-09-06T11:20:44.595Z,96689.09
2022-09-06T11:22:07.961Z,96693.75
2022-09-06T11:23:12.128Z,96696.06
2022-09-06T11:24:22.429Z,96689.78
2022-09-06T11:25:38.704Z,96682.19
2022-09-06T11:26:55.441Z,96692.69
2022-09-06T11:28:00.982Z,96686.09
2022-09-06T11:42:07.144Z,96684.34
2022-09-06T11:43:12.592Z,96682.09
2022-09-06T11:44:52.194Z,96686.59
2022-09-06T11:59:47.654Z,96666.66
2022-09-06T12:01:13.915Z,96665.81
2022-09-06T12:02:34.907Z,96674.88
2022-09-06T12:21:52.170Z,96687.09
2022-09-06T12:22:54.681Z,96692.44
2022-09-06T12:49:47.451Z,96678.41
2022-09-06T12:51:00.963Z,96675.13
2022-09-06T12:52:19.151Z,96668.41
2022-09-06T12:53:24.895Z,96660.84
2022-09-06T13:10:46.728Z,96666.69
2022-09-06T13:11:55.590Z,96667.72
2022-09-06T13:43:29.639Z,96641.00
2022-09-06T14:24:00.904Z,96664.06
2022-09-06T14:50:20.344Z,96673.81
2022-09-06T14:51:23.173Z,96647.53
2022-09-06T15:01:13.703Z,96621.03
2022-09-06T15:02:15.228Z,96609.53
2022-09-06T15:03:17.388Z,96605.97
2022-09-06T15:04:19.081Z,96595.94
2022-09-06T15:05:23.937Z,96590.97
2022-09-06T15:06:27.263Z,96603.47
2022-09-06T15:07:28.944Z,96589.84
2022-09-06T15:08:30.529Z,96597.31
2022-09-06T15:09:32.168Z,96597.00
2022-09-06T15:10:37.569Z,96578.75
2022-09-06T15:11:40.565Z,96592.59
2022-09-06T15:12:42.031Z,96581.75
2022-09-06T15:13:43.771Z,96592.09
2022-09-06T15:14:48.134Z,96582.44
2022-09-06T15:15:49.678Z,96577.38
2022-09-06T15:16:55.794Z,96578.38
2022-09-06T15:17:58.319Z,96573.22
2022-09-06T15:19:00.132Z,96559.06
2022-09-06T15:20:02.145Z,96570.56
2022-09-06T15:21:15.694Z,96563.09
2022-09-06T15:22:17.169Z,96563.91
2022-09-06T15:23:26.049Z,96568.22
2022-09-06T15:24:28.881Z,96573.34
2022-09-06T15:25:30.317Z,96568.88
2022-09-06T15:26:35.332Z,96568.38
2022-09-06T15:27:36.845Z,96556.84
2022-09-06T15:28:40.117Z,96572.91
2022-09-06T15:29:42.521Z,96563.25
2022-09-06T15:30:44.007Z,96567.31
2022-09-06T15:31:51.328Z,96567.06
2022-09-06T15:32:53.085Z,96568.63
2022-09-06T15:33:54.936Z,96555.13
2022-09-06T15:35:04.332Z,96571.84
2022-09-06T15:36:08.458Z,96560.91
2022-09-06T15:37:10.399Z,96557.31
2022-09-06T15:38:12.336Z,96553.13
2022-09-06T15:39:14.392Z,96548.44
2022-09-06T15:40:16.239Z,96545.38
2022-09-06T15:41:19.657Z,96546.09
2022-09-06T15:53:48.761Z,96540.38
2022-09-06T15:55:08.684Z,96549.59
2022-09-06T15:56:12.981Z,96544.69
2022-09-06T16:05:12.980Z,96541.88
2022-09-06T16:07:25.764Z,96533.38
2022-09-06T16:17:18.757Z,96543.66
2022-09-06T16:18:20.642Z,96538.75
2022-09-06T16:19:22.159Z,96541.38
2022-09-06T16:27:38.818Z,96531.53
2022-09-06T16:28:40.283Z,96536.13
2022-09-06T16:29:44.774Z,96534.50
2022-09-06T16:30:46.526Z,96537.59
2022-09-06T16:31:48.452Z,96542.47
2022-09-06T16:57:02.726Z,96513.38
2022-09-06T16:58:04.150Z,96515.28
2022-09-06T17:14:27.397Z,96507.28
